Time;durP1;ratioP1;P1;durP2;ratioP2;P2;SDS_P1;SDS_P2;PMS_P1;PMS_P2;Temp;Humidity;BMP_temperature;BMP_pressure;BME280_temperature;BME280_humidity;BME280_pressure;Samples;Min_cycle;Max_cycle;Signal;HPM_P1;HPM_P2
2022/01/30 00:00:47;;;;;;;0.50;0.50;;;6.50;99.90;;;;;;1870349;76;21470;-76
2022/01/30 00:03:19;;;;;;;0.40;0.40;;;6.50;99.90;;;;;;1864122;77;21032;-75
2022/01/30 00:05:43;;;;;;;0.45;0.45;;;6.60;99.90;;;;;;1862218;76;21241;-77
2022/01/30 00:08:11;;;;;;;0.62;0.30;;;6.50;99.90;;;;;;1874506;76;21152;-75
2022/01/30 00:10:40;;;;;;;0.40;0.40;;;6.50;99.90;;;;;;1870587;76;21072;-76
2022/01/30 00:13:12;;;;;;;0.30;0.30;;;6.60;99.90;;;;;;1881638;76;21113;-77
2022/01/30 00:15:45;;;;;;;0.62;0.40;;;6.60;99.90;;;;;;1862837;76;21140;-76
2022/01/30 00:20:41;;;;;;;0.47;0.47;;;6.60;99.90;;;;;;1876465;76;21122;-76
2022/01/30 00:23:16;;;;;;;0.33;0.33;;;6.70;99.90;;;;;;1866872;76;21068;-76
2022/01/30 00:25:55;;;;;;;0.42;0.40;;;6.70;99.90;;;;;;1876076;76;21079;-75
2022/01/30 00:28:19;;;;;;;0.20;0.20;;;6.80;99.90;;;;;;1868561;77;21162;-76
2022/01/30 00:30:46;;;;;;;0.40;0.40;;;6.70;99.90;;;;;;1866271;76;21067;-75
2022/01/30 00:33:15;;;;;;;0.33;0.33;;;6.80;99.90;;;;;;1863298;76;21495;-77
2022/01/30 00:35:42;;;;;;;0.40;0.40;;;6.80;99.90;;;;;;1882238;76;21126;-76
2022/01/30 00:38:15;;;;;;;0.30;0.30;;;6.80;99.90;;;;;;1862040;76;21035;-75
2022/01/30 00:40:39;;;;;;;;;;;6.80;99.90;;;;;;1873763;75;21126;-76
2022/01/30 00:43:07;;;;;;;0.50;0.50;;;6.90;99.90;;;;;;1829347;77;20170;-75
2022/01/30 00:45:34;;;;;;;0.40;0.40;;;6.80;99.90;;;;;;1868570;77;21036;-75
2022/01/30 00:48:02;;;;;;;0.60;0.50;;;6.80;99.90;;;;;;1868285;76;21498;-75
2022/01/30 00:50:29;;;;;;;0.55;0.30;;;6.80;99.90;;;;;;1868170;77;21016;-76
2022/01/30 00:52:56;;;;;;;0.37;0.37;;;7.00;99.90;;;;;;1868429;76;21113;-75
2022/01/30 00:55:27;;;;;;;0.28;0.28;;;6.90;99.90;;;;;;1868211;76;21156;-76
2022/01/30 00:57:54;;;;;;;;;;;7.00;99.90;;;;;;1873657;76;21071;-75
2022/01/30 01:00:21;;;;;;;0.40;0.40;;;7.00;99.90;;;;;;1840744;77;20119;-77
2022/01/30 01:02:49;;;;;;;0.30;0.30;;;7.00;99.90;;;;;;1824903;78;21149;-75
2022/01/30 01:05:18;;;;;;;0.40;0.40;;;7.10;99.90;;;;;;1807811;77;21180;-77
2022/01/30 01:07:47;;;;;;;0.40;0.40;;;7.00;99.90;;;;;;1813891;77;21080;-77
2022/01/30 01:10:28;;;;;;;0.42;0.42;;;7.00;99.90;;;;;;1877564;76;21542;-77
2022/01/30 01:13:09;;;;;;;0.40;0.40;;;7.00;99.90;;;;;;1859523;76;21167;-75
2022/01/30 01:23:24;;;;;;;0.40;0.40;;;7.00;99.90;;;;;;1820951;78;21169;-77
2022/01/30 01:23:33;;;;;;;0.28;0.28;;;7.00;99.90;;;;;;1815751;78;21169;-76
2022/01/30 01:26:00;;;;;;;0.42;0.42;;;7.00;99.90;;;;;;1862034;75;21051;-75
2022/01/30 01:28:27;;;;;;;1.25;0.60;;;7.00;99.90;;;;;;1863700;76;21151;-75
2022/01/30 01:30:55;;;;;;;0.50;0.50;;;7.00;99.90;;;;;;1868648;76;21472;-74
2022/01/30 01:33:26;;;;;;;0.60;0.50;;;6.90;99.90;;;;;;1870200;76;21059;-76
2022/01/30 01:35:51;;;;;;;0.50;0.47;;;6.90;99.90;;;;;;1862676;76;21079;-75
2022/01/30 01:38:19;;;;;;;0.72;0.50;;;6.80;99.90;;;;;;1862163;77;21483;-75
2022/01/30 01:40:52;;;;;;;0.40;0.40;;;6.80;99.90;;;;;;1861721;77;21188;-75
2022/01/30 01:43:16;;;;;;;0.57;0.40;;;6.80;99.90;;;;;;1873818;75;21230;-76
2022/01/30 01:45:43;;;;;;;0.50;0.50;;;6.90;99.90;;;;;;1870146;76;21067;-74
2022/01/30 01:48:13;;;;;;;0.75;0.60;;;6.90;99.90;;;;;;1868712;76;21080;-75
2022/01/30 01:50:40;;;;;;;0.95;0.60;;;6.80;99.90;;;;;;1861584;76;21197;-76
2022/01/30 01:53:08;;;;;;;0.72;0.70;;;6.80;99.90;;;;;;1862924;76;21079;-75
2022/01/30 01:55:37;;;;;;;0.57;0.57;;;6.90;99.90;;;;;;1862281;77;21081;-75
2022/01/30 01:58:05;;;;;;;0.82;0.50;;;7.00;99.90;;;;;;1869862;76;21250;-76
2022/01/30 02:00:32;;;;;;;2.72;0.75;;;6.90;99.90;;;;;;1862102;76;21405;-75
2022/01/30 02:03:00;;;;;;;0.88;0.70;;;6.80;99.90;;;;;;1847218;76;21078;-76
2022/01/30 02:05:29;;;;;;;1.00;0.90;;;6.80;99.90;;;;;;1884383;76;21084;-76
2022/01/30 02:10:38;;;;;;;0.90;0.70;;;6.80;99.90;;;;;;1862169;76;21440;-73
2022/01/30 02:13:11;;;;;;;0.60;0.60;;;6.80;99.90;;;;;;1859793;76;21083;-75
2022/01/30 02:15:48;;;;;;;1.22;0.80;;;6.70;99.90;;;;;;1877026;75;21115;-75
2022/01/30 02:26:13;;;;;;;0.78;0.78;;;6.90;99.90;;;;;;1863951;77;21080;-75
2022/01/30 02:28:59;;;;;;;2.83;0.70;;;6.70;99.90;;;;;;1846732;77;21101;-75
2022/01/30 02:31:28;;;;;;;0.65;0.62;;;6.60;99.90;;;;;;1732373;81;21261;-75
2022/01/30 02:33:55;;;;;;;3.00;0.62;;;6.60;99.90;;;;;;1786095;80;21073;-75
2022/01/30 02:36:23;;;;;;;1.12;0.80;;;6.50;99.90;;;;;;1808885;78;21555;-74
2022/01/30 02:38:56;;;;;;;0.80;0.80;;;6.50;99.90;;;;;;1802977;79;21092;-74
2022/01/30 02:41:20;;;;;;;;;;;6.50;99.90;;;;;;1803392;77;21105;-76
2022/01/30 02:43:58;;;;;;;0.80;0.75;;;6.40;99.90;;;;;;1793720;80;20132;-76
2022/01/30 02:46:28;;;;;;;0.80;0.80;;;6.50;99.90;;;;;;1791366;78;21135;-75
2022/01/30 02:48:56;;;;;;;1.07;0.80;;;6.50;99.90;;;;;;1788648;79;21151;-75
2022/01/30 02:51:22;;;;;;;0.80;0.80;;;6.50;99.90;;;;;;1787818;77;21074;-75
2022/01/30 02:54:03;;;;;;;0.62;0.62;;;6.50;99.90;;;;;;1811759;77;21125;-75
2022/01/30 02:56:18;;;;;;;0.88;0.88;;;6.50;99.90;;;;;;1799209;80;21076;-76
2022/01/30 02:58:45;;;;;;;0.80;0.80;;;6.50;99.90;;;;;;1801082;80;21110;-75
2022/01/30 03:01:12;;;;;;;0.88;0.85;;;6.50;99.90;;;;;;1811252;78;21125;-76
2022/01/30 03:03:40;;;;;;;1.72;0.62;;;6.50;99.90;;;;;;1814658;78;21093;-76
2022/01/30 03:06:07;;;;;;;1.12;0.90;;;6.50;99.90;;;;;;1791889;78;21097;-76
2022/01/30 03:08:34;;;;;;;1.75;0.68;;;6.60;99.90;;;;;;1781199;80;21053;-75
2022/01/30 03:11:02;;;;;;;0.70;0.70;;;6.60;99.90;;;;;;1784324;79;21449;-75
2022/01/30 03:13:29;;;;;;;0.62;0.62;;;6.60;99.90;;;;;;1787051;80;21485;-75
2022/01/30 03:16:00;;;;;;;0.60;0.60;;;6.60;99.90;;;;;;1790614;79;21084;-75
2022/01/30 03:18:25;;;;;;;0.88;0.85;;;6.60;99.90;;;;;;1788651;78;21411;-75
2022/01/30 03:20:53;;;;;;;0.65;0.60;;;6.60;99.90;;;;;;1789588;79;21210;-75
2022/01/30 03:23:20;;;;;;;1.00;0.90;;;6.70;99.90;;;;;;1783826;80;21147;-76
2022/01/30 03:25:53;;;;;;;1.10;0.72;;;6.60;99.90;;;;;;1788295;79;21089;-76
2022/01/30 03:28:16;;;;;;;1.00;1.00;;;6.60;99.90;;;;;;1781189;79;21112;-76
2022/01/30 03:30:45;;;;;;;0.72;0.72;;;6.60;99.90;;;;;;1781179;80;21564;-76
2022/01/30 03:33:12;;;;;;;0.60;0.60;;;6.60;99.90;;;;;;1798080;78;21200;-77
2022/01/30 03:35:40;;;;;;;0.60;0.60;;;6.60;99.90;;;;;;1782021;79;21497;-76
2022/01/30 03:38:07;;;;;;;1.22;0.78;;;6.70;99.90;;;;;;1781386;79;21501;-76
2022/01/30 03:40:35;;;;;;;0.82;0.75;;;6.70;99.90;;;;;;1781315;80;21237;-76
2022/01/30 03:43:02;;;;;;;0.60;0.60;;;6.70;99.90;;;;;;1781214;80;21059;-76
2022/01/30 03:45:29;;;;;;;0.62;0.62;;;6.60;99.90;;;;;;1781354;79;21084;-76
2022/01/30 03:47:56;;;;;;;1.05;0.88;;;6.60;99.90;;;;;;1781284;79;21225;-76
2022/01/30 03:50:25;;;;;;;2.55;0.60;;;6.70;99.90;;;;;;1781252;79;21163;-75
2022/01/30 03:52:54;;;;;;;0.70;0.70;;;6.60;99.90;;;;;;1781316;79;21084;-75
2022/01/30 03:55:22;;;;;;;0.98;0.72;;;6.60;99.90;;;;;;1781355;79;21102;-75
2022/01/30 03:57:50;;;;;;;0.55;0.55;;;6.50;99.90;;;;;;1781322;79;21167;-75
2022/01/30 04:00:17;;;;;;;0.93;0.60;;;6.60;99.90;;;;;;1766473;78;21092;-76
2022/01/30 04:02:45;;;;;;;1.02;0.93;;;6.50;99.90;;;;;;1791460;80;21061;-75
2022/01/30 04:05:12;;;;;;;1.17;0.82;;;6.60;99.90;;;;;;1790570;79;21120;-75
2022/01/30 04:07:40;;;;;;;0.60;0.60;;;6.60;99.90;;;;;;1792495;79;21080;-75
2022/01/30 04:10:08;;;;;;;0.70;0.70;;;6.50;99.90;;;;;;1783726;79;21092;-75
2022/01/30 04:12:35;;;;;;;0.60;0.60;;;6.50;99.90;;;;;;1785132;79;21069;-75
2022/01/30 04:15:03;;;;;;;1.00;0.65;;;6.50;99.90;;;;;;1783365;80;21113;-75
2022/01/30 04:17:30;;;;;;;1.95;0.70;;;6.50;99.90;;;;;;1789410;79;21509;-75
2022/01/30 04:19:58;;;;;;;1.85;0.70;;;6.60;99.90;;;;;;1788065;79;21163;-75
2022/01/30 04:22:25;;;;;;;1.45;0.70;;;6.60;99.90;;;;;;1792081;79;21082;-75
2022/01/30 04:24:52;;;;;;;1.02;0.57;;;6.50;99.90;;;;;;1786401;79;21116;-75
2022/01/30 04:27:20;;;;;;;0.80;0.70;;;6.50;99.90;;;;;;1781198;80;21147;-75
2022/01/30 04:29:49;;;;;;;1.10;0.70;;;6.60;99.90;;;;;;1783308;79;21547;-75
2022/01/30 04:32:17;;;;;;;0.98;0.75;;;6.60;99.90;;;;;;1768450;80;21108;-75
2022/01/30 04:34:52;;;;;;;1.37;0.70;;;6.60;99.90;;;;;;1788071;79;21069;-75
2022/01/30 04:37:25;;;;;;;4.10;0.98;;;6.60;99.90;;;;;;1800080;78;21205;-75
2022/01/30 04:51:57;;;;;;;1.62;0.80;;;6.60;99.90;;;;;;1781034;79;21113;-77
2022/01/30 04:53:14;;;;;;;2.25;1.00;;;6.70;99.90;;;;;;1806186;78;21584;-76
2022/01/30 04:58:51;;;;;;;3.08;1.15;;;6.70;99.90;;;;;;1806456;78;21151;-76
2022/01/30 05:01:15;;;;;;;3.37;1.20;;;6.90;99.90;;;;;;1808696;78;21195;-76
2022/01/30 05:03:59;;;;;;;7.35;1.82;;;7.00;99.90;;;;;;1806035;78;21187;-76
2022/01/30 05:06:29;;;;;;;6.70;2.02;;;7.20;99.90;;;;;;1800356;78;21080;-76
2022/01/30 05:08:49;;;;;;;5.20;1.80;;;7.40;99.90;;;;;;1788495;78;21571;-75
2022/01/30 05:11:16;;;;;;;3.25;1.55;;;7.50;99.90;;;;;;1790484;79;21077;-76
2022/01/30 05:13:47;;;;;;;5.47;2.22;;;7.50;99.90;;;;;;1788162;79;21152;-75
2022/01/30 05:16:13;;;;;;;10.43;2.22;;;7.60;99.90;;;;;;1790615;78;21116;-77
2022/01/30 05:18:41;;;;;;;7.67;2.02;;;7.50;99.90;;;;;;1758106;80;21174;-75
2022/01/30 05:21:09;;;;;;;9.15;2.22;;;7.60;99.90;;;;;;1781207;80;21131;-75
2022/01/30 05:23:36;;;;;;;9.23;1.70;;;7.70;99.90;;;;;;1781216;80;21127;-75
2022/01/30 05:26:07;;;;;;;6.70;2.00;;;7.60;99.90;;;;;;1781152;80;21628;-75
2022/01/30 05:28:35;;;;;;;12.10;2.60;;;7.70;99.90;;;;;;1781079;80;21056;-75
2022/01/30 05:31:02;;;;;;;7.00;1.72;;;7.70;99.90;;;;;;1781203;80;21199;-76
2022/01/30 05:33:30;;;;;;;15.68;2.92;;;7.70;99.90;;;;;;1781107;80;21116;-77
2022/01/30 05:35:57;;;;;;;10.38;1.92;;;7.70;99.90;;;;;;1781204;80;21073;-76
2022/01/30 05:38:25;;;;;;;10.05;2.42;;;7.60;99.90;;;;;;1781301;80;21058;-77
2022/01/30 05:40:54;;;;;;;7.08;1.92;;;7.60;99.90;;;;;;1756410;78;21162;-77
2022/01/30 05:43:23;;;;;;;5.60;1.77;;;7.60;99.90;;;;;;1770977;80;21127;-78
2022/01/30 05:45:59;;;;;;;4.55;1.70;;;7.50;99.90;;;;;;1781324;80;21077;-76
2022/01/30 05:48:21;;;;;;;6.42;2.05;;;7.50;99.90;;;;;;1781458;79;21474;-78
2022/01/30 05:50:48;;;;;;;14.33;2.12;;;7.50;99.90;;;;;;1781761;80;21041;-78
2022/01/30 05:53:16;;;;;;;12.13;2.90;;;7.40;99.90;;;;;;1756455;80;21140;-77
2022/01/30 05:55:43;;;;;;;16.00;2.75;;;7.40;99.90;;;;;;1781317;79;21547;-78
2022/01/30 05:58:10;;;;;;;11.73;3.35;;;7.50;99.90;;;;;;1781521;79;21061;-78
2022/01/30 06:00:40;;;;;;;11.97;2.27;;;7.50;99.90;;;;;;1781398;79;21211;-76
2022/01/30 06:03:07;;;;;;;11.10;2.77;;;7.50;99.90;;;;;;1781061;79;21151;-78
2022/01/30 06:05:34;;;;;;;6.00;2.25;;;7.50;99.90;;;;;;1781277;79;21603;-79
2022/01/30 06:08:11;;;;;;;14.95;2.25;;;7.40;99.90;;;;;;1781280;79;21164;-78
2022/01/30 06:10:30;;;;;;;9.75;2.30;;;7.40;99.90;;;;;;1781458;79;21144;-76
2022/01/30 06:12:57;;;;;;;9.53;2.67;;;7.40;99.90;;;;;;1781444;79;21085;-76
2022/01/30 06:15:25;;;;;;;6.50;2.20;;;7.40;99.90;;;;;;1781494;79;21513;-76
2022/01/30 06:17:52;;;;;;;8.35;2.62;;;7.40;99.90;;;;;;1781552;80;21057;-76
2022/01/30 06:20:19;;;;;;;10.78;2.12;;;7.40;99.90;;;;;;1781263;79;21061;-76
2022/01/30 06:22:47;;;;;;;8.55;2.58;;;7.40;99.90;;;;;;1781208;79;21166;-76
2022/01/30 06:25:15;;;;;;;8.88;2.05;;;7.40;99.90;;;;;;1780876;79;21124;-77
2022/01/30 06:27:43;;;;;;;10.35;2.55;;;7.40;99.90;;;;;;1781283;79;21494;-78
2022/01/30 06:30:10;;;;;;;7.45;2.37;;;7.40;99.90;;;;;;1784941;79;21149;-76
2022/01/30 06:32:38;;;;;;;12.20;2.92;;;7.40;99.90;;;;;;1781203;80;21163;-77
2022/01/30 06:35:05;;;;;;;7.78;2.08;;;7.40;99.90;;;;;;1781265;79;21077;-77
2022/01/30 06:37:33;;;;;;;9.50;2.80;;;7.30;99.90;;;;;;1781385;80;21155;-75
2022/01/30 06:40:00;;;;;;;12.25;2.35;;;7.30;99.90;;;;;;1781239;79;21098;-76
2022/01/30 06:42:29;;;;;;;10.00;2.15;;;7.30;99.90;;;;;;1781142;80;21152;-77
2022/01/30 06:44:56;;;;;;;8.73;2.10;;;7.30;99.90;;;;;;1781224;79;21070;-77
2022/01/30 06:47:24;;;;;;;11.53;2.75;;;7.30;99.90;;;;;;1781305;79;21135;-77
2022/01/30 06:49:51;;;;;;;9.63;2.47;;;7.20;99.90;;;;;;1781064;80;21469;-78
2022/01/30 06:52:18;;;;;;;9.60;2.17;;;7.20;99.90;;;;;;1781032;79;21481;-77
2022/01/30 06:54:46;;;;;;;11.80;2.52;;;7.10;99.90;;;;;;1781032;79;21097;-77
2022/01/30 06:57:13;;;;;;;15.63;2.85;;;7.10;99.90;;;;;;1781051;79;21090;-77
2022/01/30 06:59:40;;;;;;;6.90;2.20;;;7.00;99.90;;;;;;1781088;79;21096;-77
2022/01/30 07:02:09;;;;;;;16.52;2.30;;;6.90;99.90;;;;;;1781036;79;21232;-76
2022/01/30 07:04:36;;;;;;;8.90;2.22;;;6.90;99.90;;;;;;1780996;79;21104;-78
2022/01/30 07:07:04;;;;;;;13.75;2.30;;;6.80;99.90;;;;;;1781049;79;21116;-77
2022/01/30 07:09:32;;;;;;;9.03;2.65;;;6.80;99.90;;;;;;1781142;79;21100;-77
2022/01/30 07:12:00;;;;;;;8.73;2.60;;;6.80;99.90;;;;;;1781131;79;21197;-76
2022/01/30 07:14:27;;;;;;;9.73;2.20;;;6.80;99.90;;;;;;1781281;80;21152;-78
2022/01/30 07:16:54;;;;;;;12.85;2.42;;;6.70;99.90;;;;;;1781066;79;21128;-77
2022/01/30 07:19:21;;;;;;;8.23;2.20;;;6.70;99.90;;;;;;1781025;79;21160;-78
2022/01/30 07:21:49;;;;;;;10.30;2.00;;;6.60;99.90;;;;;;1781210;80;21030;-77
2022/01/30 07:24:16;;;;;;;9.18;2.70;;;6.60;99.90;;;;;;1781231;80;21105;-76
2022/01/30 07:26:43;;;;;;;8.68;2.35;;;6.60;99.90;;;;;;1781218;79;21085;-78
2022/01/30 07:29:11;;;;;;;12.43;2.22;;;6.60;99.90;;;;;;1781229;79;21081;-76
2022/01/30 07:31:38;;;;;;;8.65;2.20;;;6.60;99.90;;;;;;1781452;79;21486;-78
2022/01/30 07:34:05;;;;;;;13.83;2.85;;;6.60;99.90;;;;;;1781674;79;21101;-77
2022/01/30 07:36:36;;;;;;;7.05;2.42;;;6.60;99.90;;;;;;1781746;80;21056;-77
2022/01/30 07:39:05;;;;;;;14.00;2.45;;;6.60;99.90;;;;;;1781166;80;21557;-76
2022/01/30 07:41:33;;;;;;;7.35;1.82;;;6.60;99.90;;;;;;1781144;79;21084;-77
2022/01/30 07:44:01;;;;;;;12.18;2.60;;;6.70;99.90;;;;;;1781376;79;21092;-77
2022/01/30 07:46:29;;;;;;;8.30;2.77;;;6.70;99.90;;;;;;1781218;79;21089;-77
2022/01/30 07:48:56;;;;;;;18.02;2.50;;;6.70;99.90;;;;;;1781132;79;21146;-83
2022/01/30 07:51:24;;;;;;;12.07;2.45;;;6.70;99.90;;;;;;1781237;79;21117;-82
2022/01/30 07:53:53;;;;;;;9.85;2.37;;;6.80;99.90;;;;;;1781281;79;21496;-83
2022/01/30 07:56:20;;;;;;;10.98;2.75;;;6.80;99.90;;;;;;1781137;79;21086;-82
2022/01/30 07:58:47;;;;;;;15.10;2.55;;;6.80;99.90;;;;;;1781291;80;21061;-85
2022/01/30 08:01:15;;;;;;;20.00;3.20;;;6.80;99.90;;;;;;1781164;79;21089;-78
2022/01/30 08:03:42;;;;;;;17.27;3.10;;;6.90;99.90;;;;;;1780979;79;21088;-76
2022/01/30 08:06:09;;;;;;;12.47;2.75;;;6.80;99.90;;;;;;1781200;80;21070;-81
2022/01/30 08:08:36;;;;;;;15.65;3.05;;;6.80;99.90;;;;;;1781205;80;21061;-78
2022/01/30 08:11:04;;;;;;;18.23;2.72;;;6.80;99.90;;;;;;1781166;79;21637;-78
2022/01/30 08:13:31;;;;;;;15.78;2.87;;;6.90;99.90;;;;;;1781332;80;21050;-82
2022/01/30 08:15:58;;;;;;;18.02;3.40;;;6.90;99.90;;;;;;1781124;79;21084;-76
2022/01/30 08:18:26;;;;;;;14.40;2.95;;;6.90;99.90;;;;;;1781219;79;21548;-75
2022/01/30 08:20:54;;;;;;;11.05;2.52;;;6.80;99.90;;;;;;1781156;80;21096;-78
2022/01/30 08:23:23;;;;;;;12.30;2.62;;;6.80;99.90;;;;;;1781129;80;21552;-78
2022/01/30 08:25:51;;;;;;;10.57;2.70;;;6.70;99.90;;;;;;1781412;79;21093;-78
2022/01/30 08:28:20;;;;;;;24.50;3.02;;;6.80;99.90;;;;;;1781097;80;21508;-76
2022/01/30 08:30:47;;;;;;;16.20;2.87;;;6.80;99.90;;;;;;1781101;79;21147;-80
2022/01/30 08:33:17;;;;;;;8.10;2.65;;;6.80;99.90;;;;;;1781080;79;21139;-81
2022/01/30 08:35:44;;;;;;;;;;;6.90;99.90;;;;;;1783900;79;21217;-84
2022/01/30 08:38:15;;;;;;;18.10;3.20;;;6.80;99.90;;;;;;1781281;80;20106;-82
2022/01/30 08:40:40;;;;;;;12.07;3.08;;;6.90;99.90;;;;;;1781420;78;21088;-81
2022/01/30 08:43:08;;;;;;;10.18;2.37;;;6.90;99.90;;;;;;1781079;79;21080;-78
2022/01/30 08:45:35;;;;;;;15.40;2.58;;;7.00;99.90;;;;;;1781227;79;21113;-79
2022/01/30 08:48:02;;;;;;;13.88;2.77;;;7.00;99.90;;;;;;1781151;79;21143;-80
2022/01/30 08:50:30;;;;;;;10.25;2.52;;;7.00;99.90;;;;;;1781232;79;21069;-83
2022/01/30 08:52:57;;;;;;;16.65;3.85;;;7.00;99.90;;;;;;1781260;79;21158;-79
2022/01/30 08:55:29;;;;;;;8.88;2.55;;;7.10;99.90;;;;;;1781025;79;21140;-78
2022/01/30 08:57:53;;;;;;;9.33;2.20;;;7.10;99.90;;;;;;1781157;79;21088;-86
2022/01/30 09:00:21;;;;;;;9.55;2.55;;;7.20;99.90;;;;;;1781067;79;21155;-89
2022/01/30 09:02:48;;;;;;;11.60;2.80;;;7.30;99.90;;;;;;1781250;79;21478;-88
2022/01/30 09:05:15;;;;;;;8.33;2.05;;;7.30;99.90;;;;;;1761530;80;21147;-88
2022/01/30 09:07:43;;;;;;;15.30;3.08;;;7.30;99.90;;;;;;1802296;78;21109;-86
2022/01/30 09:10:11;;;;;;;10.58;2.72;;;7.30;99.90;;;;;;1807246;78;21162;-84
2022/01/30 09:12:38;;;;;;;10.48;2.37;;;7.30;99.90;;;;;;1800861;79;21055;-84
2022/01/30 09:15:06;;;;;;;10.65;2.50;;;7.20;99.90;;;;;;1803457;78;21156;-83
2022/01/30 09:17:34;;;;;;;10.28;2.67;;;7.10;99.90;;;;;;1801678;79;21080;-76
2022/01/30 09:20:03;;;;;;;17.42;2.90;;;7.00;99.90;;;;;;1787432;79;21147;-84
2022/01/30 09:22:32;;;;;;;13.20;3.37;;;7.00;99.90;;;;;;1785540;79;21477;-84
2022/01/30 09:24:59;;;;;;;13.22;2.70;;;7.00;99.90;;;;;;1781331;80;21053;-88
2022/01/30 09:27:26;;;;;;;16.15;2.58;;;7.00;99.90;;;;;;1790421;79;21147;-85
2022/01/30 09:29:54;;;;;;;16.73;3.55;;;7.20;99.90;;;;;;1783509;78;21337;-85
2022/01/30 09:32:23;;;;;;;15.15;3.65;;;7.40;99.90;;;;;;1790738;79;21091;-89
2022/01/30 09:34:51;;;;;;;17.25;3.10;;;7.40;99.90;;;;;;1783889;77;21049;-82
2022/01/30 09:37:18;;;;;;;14.70;3.02;;;7.40;99.90;;;;;;1783742;79;21165;-81
2022/01/30 09:39:46;;;;;;;8.93;2.60;;;7.20;99.90;;;;;;1755827;79;21497;-81
2022/01/30 09:42:14;;;;;;;7.67;2.15;;;7.10;99.90;;;;;;1779377;80;21073;-82
2022/01/30 09:44:41;;;;;;;14.78;3.10;;;7.10;99.90;;;;;;1789506;78;21057;-81
2022/01/30 09:47:16;;;;;;;8.15;2.72;;;7.20;99.90;;;;;;1783277;79;21061;-81
2022/01/30 09:49:46;;;;;;;11.80;2.80;;;7.20;99.90;;;;;;1784852;79;21151;-82
2022/01/30 09:52:13;;;;;;;;;;;7.20;99.90;;;;;;1787978;78;21073;-84
2022/01/30 09:54:40;;;;;;;12.55;2.92;;;7.20;99.90;;;;;;1781069;80;20109;-81
2022/01/30 09:57:08;;;;;;;14.23;2.37;;;7.00;99.90;;;;;;1781164;80;21065;-82
2022/01/30 09:59:35;;;;;;;17.00;3.42;;;7.10;99.90;;;;;;1783384;79;21120;-82
2022/01/30 10:02:08;;;;;;;17.00;3.22;;;7.40;99.90;;;;;;1784539;79;21154;-80
2022/01/30 10:04:35;;;;;;;15.08;2.80;;;7.50;99.90;;;;;;1787929;79;21113;-83
2022/01/30 10:07:10;;;;;;;17.95;3.02;;;7.50;99.90;;;;;;1781682;80;21062;-82
2022/01/30 10:09:35;;;;;;;;;;;7.50;99.90;;;;;;1790906;79;21159;-82
2022/01/30 10:12:15;;;;;;;14.15;3.37;;;7.50;99.90;;;;;;1788947;79;20117;-83
2022/01/30 10:15:04;;;;;;;13.25;2.75;;;7.50;99.90;;;;;;1793497;78;21514;-83
2022/01/30 10:17:34;;;;;;;10.10;2.47;;;7.60;99.90;;;;;;1809030;78;21488;-81
2022/01/30 10:20:15;;;;;;;16.12;3.42;;;7.50;99.90;;;;;;1814868;78;21207;-85
2022/01/30 10:22:55;;;;;;;16.17;3.12;;;7.50;99.90;;;;;;1790658;79;21069;-86
2022/01/30 10:25:35;;;;;;;;;;;7.60;99.90;;;;;;1796301;78;21033;-87
2022/01/30 10:28:22;;;;;;;14.65;2.58;;;7.50;99.90;;;;;;1789131;79;20113;-84
2022/01/30 10:30:59;;;;;;;17.02;2.70;;;7.50;99.90;;;;;;1787837;79;21088;-85
2022/01/30 10:33:45;;;;;;;9.60;2.55;;;7.50;99.90;;;;;;1781674;79;21053;-87
2022/01/30 10:36:27;;;;;;;15.63;3.15;;;7.50;99.90;;;;;;1784383;79;21087;-84
2022/01/30 10:39:04;;;;;;;12.63;2.98;;;7.50;99.90;;;;;;1783289;78;21105;-81
2022/01/30 10:41:36;;;;;;;10.43;2.42;;;7.60;99.90;;;;;;1786722;78;21519;-81
2022/01/30 10:44:09;;;;;;;17.15;2.95;;;7.70;99.90;;;;;;1787400;78;21141;-85
2022/01/30 10:46:41;;;;;;;14.80;2.85;;;7.80;99.90;;;;;;1791663;78;21053;-85
2022/01/30 10:49:10;;;;;;;11.93;2.72;;;7.80;99.90;;;;;;1782470;80;21107;-86
2022/01/30 10:51:41;;;;;;;14.35;3.10;;;8.00;99.90;;;;;;1782269;79;21159;-87
2022/01/30 10:54:13;;;;;;;29.55;3.55;;;7.90;99.90;;;;;;1782292;78;21159;-83
2022/01/30 10:56:42;;;;;;;11.50;2.52;;;7.80;99.90;;;;;;1792328;79;21481;-83
2022/01/30 10:59:16;;;;;;;10.28;2.80;;;7.70;99.90;;;;;;1793282;80;21457;-85
2022/01/30 11:01:47;;;;;;;12.80;2.92;;;7.70;99.90;;;;;;1793440;77;21073;-86
2022/01/30 11:04:31;;;;;;;11.08;3.27;;;7.70;99.90;;;;;;1781679;78;21068;-83
2022/01/30 11:07:04;;;;;;;12.65;3.02;;;7.60;99.90;;;;;;1814218;77;21077;-80
2022/01/30 11:09:39;;;;;;;12.73;3.35;;;7.50;99.90;;;;;;1803909;77;21072;-84
2022/01/30 11:12:03;;;;;;;11.60;2.95;;;7.40;99.90;;;;;;1802200;78;21108;-83
2022/01/30 11:14:39;;;;;;;8.50;2.37;;;7.30;99.90;;;;;;1800446;76;21457;-83
2022/01/30 11:17:09;;;;;;;22.50;2.65;;;7.30;99.90;;;;;;1799779;78;21100;-82
2022/01/30 11:19:38;;;;;;;13.55;2.77;;;7.30;99.90;;;;;;1797906;77;21151;-84
2022/01/30 11:22:07;;;;;;;9.90;2.75;;;7.10;99.90;;;;;;1792673;78;21150;-87
2022/01/30 11:24:56;;;;;;;10.32;2.42;;;7.20;99.90;;;;;;1788188;79;21599;-80
2022/01/30 11:27:25;;;;;;;10.32;2.45;;;7.70;99.90;;;;;;1904448;74;21086;-79
2022/01/30 11:29:52;;;;;;;8.40;2.17;;;8.30;99.90;;;;;;1875383;74;21071;-82
2022/01/30 11:32:22;;;;;;;10.30;2.45;;;8.50;99.90;;;;;;1874534;74;21058;-82
2022/01/30 11:34:51;;;;;;;18.92;2.37;;;8.60;99.90;;;;;;1852851;74;21054;-83
2022/01/30 11:37:19;;;;;;;12.68;3.10;;;8.70;99.90;;;;;;1887336;73;21101;-82
2022/01/30 11:39:51;;;;;;;9.95;2.22;;;8.80;99.90;;;;;;1910901;75;21427;-83
2022/01/30 11:42:20;;;;;;;11.12;2.45;;;8.70;99.90;;;;;;1883869;73;21148;-83
2022/01/30 11:44:51;;;;;;;10.18;2.95;;;8.70;99.90;;;;;;1874523;73;21065;-83
2022/01/30 11:47:19;;;;;;;16.30;2.45;;;8.30;99.90;;;;;;1874685;73;21068;-84
2022/01/30 11:50:05;;;;;;;11.35;2.47;;;7.90;99.90;;;;;;1908257;74;21007;-85
2022/01/30 11:52:53;;;;;;;13.28;2.95;;;7.80;99.90;;;;;;1898774;75;21100;-84
2022/01/30 11:55:42;;;;;;;10.80;2.12;;;7.70;99.90;;;;;;1902003;73;21070;-84
2022/01/30 11:58:16;;;;;;;15.38;3.30;;;7.80;99.90;;;;;;1860700;76;21443;-86
2022/01/30 12:00:47;;;;;;;8.30;2.10;;;8.50;99.90;;;;;;1870679;73;21078;-85
2022/01/30 12:03:35;;;;;;;12.00;2.90;;;9.50;99.90;;;;;;1875160;73;21073;-82
2022/01/30 12:06:24;;;;;;;15.23;2.98;;;10.20;99.90;;;;;;1814444;76;21149;-85
2022/01/30 12:08:59;;;;;;;12.58;2.85;;;10.10;99.90;;;;;;1881397;74;21050;-84
2022/01/30 12:11:39;;;;;;;7.28;2.33;;;10.50;99.90;;;;;;1916845;73;21173;-85
2022/01/30 12:14:13;;;;;;;10.85;2.08;;;10.50;99.90;;;;;;1910367;75;21482;-86
2022/01/30 12:16:57;;;;;;;11.78;2.30;;;10.70;99.90;;;;;;1890532;73;21066;-85
2022/01/30 12:19:48;;;;;;;7.60;2.08;;;10.70;99.90;;;;;;1882570;76;21081;-87
2022/01/30 12:22:28;;;;;;;10.78;2.80;;;10.50;99.90;;;;;;1883345;76;21192;-85
2022/01/30 12:24:55;;;;;;;6.47;2.08;;;10.60;99.90;;;;;;1911461;73;21079;-86
2022/01/30 12:27:26;;;;;;;11.68;2.42;;;10.90;99.90;;;;;;1890608;73;21455;-86
2022/01/30 12:29:53;;;;;;;10.40;2.80;;;11.40;99.90;;;;;;1880940;74;21143;-86
2022/01/30 12:32:26;;;;;;;10.10;2.60;;;10.90;99.90;;;;;;1911166;73;21102;-86
2022/01/30 12:35:02;;;;;;;14.05;3.00;;;10.50;99.90;;;;;;1910362;74;21054;-86
2022/01/30 12:37:31;;;;;;;9.60;2.55;;;11.00;99.90;;;;;;1910281;75;21030;-85
2022/01/30 12:40:00;;;;;;;9.43;2.65;;;10.90;99.90;;;;;;1904634;73;21144;-87
2022/01/30 12:42:29;;;;;;;11.57;2.92;;;10.90;99.90;;;;;;1833397;76;21133;-86
2022/01/30 12:45:00;;;;;;;13.13;3.00;;;11.00;99.90;;;;;;1872985;75;21402;-85
2022/01/30 12:47:31;;;;;;;8.35;2.50;;;11.10;99.90;;;;;;1873331;75;21047;-84
2022/01/30 12:50:02;;;;;;;13.68;2.45;;;11.40;99.90;;;;;;1886010;75;21089;-85
2022/01/30 12:52:35;;;;;;;14.83;3.00;;;10.80;99.90;;;;;;1880029;75;21520;-85
2022/01/30 12:55:06;;;;;;;7.12;2.40;;;11.10;99.90;;;;;;1875606;75;21078;-85
2022/01/30 12:57:31;;;;;;;10.28;2.50;;;11.00;99.90;;;;;;1915123;74;21151;-85
2022/01/30 12:59:59;;;;;;;11.43;2.40;;;10.70;99.90;;;;;;1911771;74;21158;-86
2022/01/30 13:02:34;;;;;;;11.60;3.05;;;11.60;99.90;;;;;;1881183;75;21117;-85
2022/01/30 13:05:01;;;;;;;12.18;2.52;;;11.10;99.90;;;;;;1904394;74;21479;-84
2022/01/30 13:07:28;;;;;;;8.45;2.15;;;11.00;99.90;;;;;;1905762;75;21427;-84
2022/01/30 13:10:13;;;;;;;8.38;2.50;;;11.50;99.90;;;;;;1905552;75;21035;-86
2022/01/30 13:12:45;;;;;;;11.60;2.90;;;12.00;99.90;;;;;;1905626;75;21035;-85
2022/01/30 13:15:15;;;;;;;7.55;2.20;;;12.30;99.90;;;;;;1905910;75;21067;-85
2022/01/30 13:17:42;;;;;;;9.33;2.45;;;10.80;99.90;;;;;;1905975;75;21453;-84
2022/01/30 13:20:11;;;;;;;8.13;2.62;;;10.80;99.90;;;;;;1906087;75;21178;-84
2022/01/30 13:22:40;;;;;;;8.03;2.22;;;11.10;99.90;;;;;;1905801;75;21168;-85
2022/01/30 13:25:10;;;;;;;6.47;2.20;;;11.00;99.90;;;;;;1905828;75;21079;-86
2022/01/30 13:27:38;;;;;;;10.60;2.58;;;10.80;99.90;;;;;;1905540;75;21423;-84
2022/01/30 13:30:06;;;;;;;5.95;2.15;;;11.40;99.90;;;;;;1905708;75;21055;-86
2022/01/30 13:32:33;;;;;;;16.32;2.75;;;11.60;99.90;;;;;;1905733;75;21514;-84
2022/01/30 13:35:03;;;;;;;10.23;2.75;;;11.10;99.90;;;;;;1880744;75;21042;-83
2022/01/30 13:37:31;;;;;;;12.03;2.62;;;11.50;99.90;;;;;;1905556;75;21513;-85